createdAt,value
2019-04-16T00:03:33.948Z,9.80
2019-04-16T00:08:49.532Z,12.00
2019-04-16T00:14:04.243Z,11.37
2019-04-16T00:19:10.046Z,10.70
2019-04-16T00:24:40.267Z,12.33
2019-04-16T00:29:45.990Z,12.60
2019-04-16T00:34:51.479Z,14.00
2019-04-16T00:39:57.130Z,11.50
2019-04-16T00:45:02.843Z,10.50
2019-04-16T00:50:09.168Z,9.80
2019-04-16T00:55:14.811Z,12.83
2019-04-16T01:00:20.355Z,11.13
2019-04-16T01:05:25.821Z,12.20
2019-04-16T01:10:31.284Z,11.33
2019-04-16T01:15:36.724Z,11.57
2019-04-16T01:20:43.209Z,10.30
2019-04-16T01:25:49.513Z,11.57
2019-04-16T01:31:19.661Z,11.40
2019-04-16T01:36:43.986Z,11.10
2019-04-16T01:41:50.347Z,11.40
2019-04-16T01:46:56.744Z,11.50
2019-04-16T01:52:02.193Z,10.53
2019-04-16T01:57:07.635Z,10.97
2019-04-16T02:02:15.563Z,12.73
2019-04-16T02:07:20.238Z,10.60
2019-04-16T02:12:25.683Z,14.17
2019-04-16T02:17:31.117Z,9.60
2019-04-16T02:22:36.524Z,11.50
2019-04-16T02:27:41.972Z,13.97
2019-04-16T02:32:47.432Z,14.97
2019-04-16T02:37:52.817Z,12.87
2019-04-16T02:43:04.100Z,10.67
2019-04-16T02:48:05.428Z,11.03
2019-04-16T02:53:28.307Z,11.57
2019-04-16T02:58:38.508Z,17.40
2019-04-16T03:03:48.838Z,10.77
2019-04-16T03:08:54.328Z,13.03
2019-04-16T03:13:59.856Z,11.73
2019-04-16T03:19:08.788Z,13.77
2019-04-16T03:24:14.212Z,11.23
2019-04-16T03:29:19.649Z,11.30
2019-04-16T03:34:25.063Z,11.40
2019-04-16T03:39:30.516Z,13.17
2019-04-16T03:44:37.272Z,12.97
2019-04-16T03:49:42.980Z,12.67
2019-04-16T03:54:48.402Z,11.30
2019-04-16T03:59:53.837Z,12.80
2019-04-16T04:05:01.556Z,13.10
2019-04-16T04:10:06.781Z,13.17
2019-04-16T04:15:12.206Z,13.67
2019-04-16T04:20:18.904Z,11.63
2019-04-16T04:25:24.730Z,11.07
2019-04-16T04:30:30.148Z,12.90
2019-04-16T04:35:35.609Z,11.83
2019-04-16T04:40:44.722Z,12.67
2019-04-16T04:45:48.492Z,13.87
2019-04-16T04:50:53.972Z,14.10
2019-04-16T04:55:59.445Z,13.33
2019-04-16T05:01:04.885Z,11.23
2019-04-16T05:06:11.671Z,10.80
2019-04-16T05:11:17.218Z,16.03
2019-04-16T05:16:22.847Z,10.23
2019-04-16T05:21:28.308Z,14.13
2019-04-16T05:26:36.620Z,15.00
2019-04-16T05:31:44.743Z,12.33
2019-04-16T05:36:50.280Z,12.20
2019-04-16T05:41:56.028Z,15.07
2019-04-16T05:47:01.767Z,11.53
2019-04-16T05:52:07.199Z,12.30
2019-04-16T05:57:16.101Z,13.87
2019-04-16T06:02:40.490Z,11.70
2019-04-16T06:07:46.072Z,17.03
2019-04-16T06:13:12.621Z,16.47
2019-04-16T06:18:37.976Z,16.80
2019-04-16T06:24:19.176Z,13.73
2019-04-16T06:29:41.913Z,12.03
2019-04-16T06:35:15.366Z,12.53
2019-04-16T06:40:46.339Z,12.03
2019-04-16T06:46:05.472Z,13.27
2019-04-16T06:51:31.634Z,12.77
2019-04-16T06:56:50.282Z,11.73
2019-04-16T07:02:12.194Z,11.97
2019-04-16T07:07:40.297Z,12.20
2019-04-16T07:12:46.499Z,11.70
2019-04-16T07:17:52.339Z,14.17
2019-04-16T07:22:58.506Z,11.07
2019-04-16T07:28:25.772Z,9.87
2019-04-16T07:33:44.827Z,10.20
2019-04-16T07:39:28.779Z,10.13
2019-04-16T07:44:36.424Z,10.47
2019-04-16T07:49:45.272Z,12.17
2019-04-16T07:55:12.657Z,9.13
2019-04-16T08:00:18.669Z,10.80
2019-04-16T08:05:27.685Z,11.50
2019-04-16T08:10:31.992Z,9.67
2019-04-16T08:15:37.937Z,12.93
2019-04-16T08:20:43.724Z,12.13
2019-04-16T08:25:55.088Z,14.73
2019-04-16T08:30:57.268Z,14.57
2019-04-16T08:36:03.130Z,12.23
2019-04-16T08:41:12.351Z,11.57
2019-04-16T08:46:16.820Z,12.50
2019-04-16T08:51:30.163Z,13.67
2019-04-16T08:56:30.224Z,12.33
2019-04-16T09:01:36.123Z,12.30
2019-04-16T09:06:45.800Z,12.10
2019-04-16T09:11:58.229Z,15.70
2019-04-16T09:17:11.294Z,13.60
2019-04-16T09:22:17.258Z,11.97
2019-04-16T09:27:41.948Z,14.70
2019-04-16T09:32:51.863Z,15.10
2019-04-16T09:38:22.560Z,14.23
2019-04-16T09:43:28.928Z,15.20
2019-04-16T09:48:35.522Z,14.00
2019-04-16T09:53:41.396Z,15.53
2019-04-16T09:58:48.051Z,17.43
2019-04-16T10:03:54.420Z,17.73
2019-04-16T10:09:00.740Z,17.60
2019-04-16T10:14:06.310Z,18.47
2019-04-16T10:19:13.789Z,16.60
2019-04-16T10:24:38.229Z,19.10
2019-04-16T10:29:43.798Z,18.47
2019-04-16T10:34:49.502Z,21.00
2019-04-16T10:40:09.868Z,17.87
2019-04-16T10:45:40.461Z,22.33
2019-04-16T10:51:01.198Z,21.23
2019-04-16T10:56:24.053Z,19.40
2019-04-16T11:01:35.206Z,18.90
2019-04-16T11:06:43.205Z,19.27
2019-04-16T11:11:48.782Z,20.37
2019-04-16T11:16:54.584Z,21.27
2019-04-16T11:22:03.932Z,20.67
2019-04-16T11:27:07.427Z,19.97
2019-04-16T11:32:15.066Z,22.23
2019-04-16T11:37:20.503Z,20.30
2019-04-16T11:42:26.057Z,21.10
2019-04-16T11:47:34.247Z,20.43
2019-04-16T11:52:40.039Z,21.70
2019-04-16T11:57:45.754Z,19.37
2019-04-16T12:03:22.629Z,17.37
2019-04-16T12:08:45.579Z,18.63
2019-04-16T12:14:00.106Z,16.93
2019-04-16T12:19:22.892Z,17.17
2019-04-16T12:24:48.796Z,19.63
2019-04-16T12:30:13.328Z,16.10
2019-04-16T12:35:35.705Z,17.77
2019-04-16T12:41:05.989Z,17.83
2019-04-16T12:46:36.335Z,13.47
2019-04-16T12:51:48.742Z,14.53
2019-04-16T12:57:16.653Z,16.23
2019-04-16T13:02:41.948Z,16.83
2019-04-16T13:08:11.114Z,15.10
2019-04-16T13:13:34.805Z,15.70
2019-04-16T13:19:00.431Z,13.90
2019-04-16T13:24:09.313Z,15.27
2019-04-16T13:29:17.458Z,14.43
2019-04-16T13:34:23.039Z,13.03
2019-04-16T13:39:50.843Z,10.67
2019-04-16T13:45:18.841Z,13.37
2019-04-16T13:50:35.339Z,13.13
2019-04-16T13:55:55.562Z,14.77
2019-04-16T14:01:10.569Z,12.67
2019-04-16T14:06:16.335Z,13.00
2019-04-16T14:11:21.779Z,12.90
2019-04-16T14:16:27.361Z,11.00
2019-04-16T14:21:32.960Z,12.20
2019-04-16T14:26:38.812Z,15.83
2019-04-16T14:31:46.159Z,9.03
2019-04-16T14:36:53.283Z,8.97
2019-04-16T14:41:58.938Z,9.13
2019-04-16T14:47:04.419Z,10.10
2019-04-16T14:52:09.907Z,10.37
2019-04-16T14:57:15.620Z,8.80
2019-04-16T15:02:32.033Z,10.57
2019-04-16T15:07:44.128Z,8.40
2019-04-16T15:13:00.418Z,10.97
2019-04-16T15:18:16.566Z,7.67
2019-04-16T15:23:56.683Z,8.07
2019-04-16T15:29:07.322Z,10.73
2019-04-16T15:34:16.048Z,7.63
2019-04-16T15:39:27.671Z,9.00
2019-04-16T15:44:45.825Z,7.27
2019-04-16T15:49:56.674Z,8.53
2019-04-16T15:55:24.411Z,11.77
2019-04-16T16:00:50.528Z,7.57
2019-04-16T16:06:00.617Z,11.73
2019-04-16T16:11:10.295Z,7.03
2019-04-16T16:16:17.977Z,6.57
2019-04-16T16:21:22.992Z,7.23
2019-04-16T16:26:28.439Z,7.10
2019-04-16T16:31:35.696Z,7.17
2019-04-16T16:36:41.582Z,7.60
2019-04-16T16:41:46.979Z,4.17
2019-04-16T16:47:11.513Z,4.17
2019-04-16T16:52:41.893Z,4.43
2019-04-16T16:58:20.943Z,4.37
2019-04-16T17:03:42.972Z,8.73
2019-04-16T17:08:48.700Z,2.57
2019-04-16T17:13:54.732Z,4.20
2019-04-16T17:19:00.490Z,5.20
2019-04-16T17:24:05.954Z,2.43
2019-04-16T17:29:11.609Z,2.23
2019-04-16T17:34:17.022Z,3.03
2019-04-16T17:39:50.255Z,5.17
2019-04-16T17:45:14.634Z,3.40
2019-04-16T17:50:39.710Z,4.13
2019-04-16T17:56:03.411Z,2.93
2019-04-16T18:01:30.662Z,3.43
2019-04-16T18:06:42.999Z,3.00
2019-04-16T18:12:07.222Z,2.53
2019-04-16T18:17:47.231Z,2.90
2019-04-16T18:23:06.763Z,2.00
2019-04-16T18:28:15.920Z,3.70
2019-04-16T18:33:43.090Z,2.03
2019-04-16T18:39:10.288Z,2.53
2019-04-16T18:44:37.660Z,3.50
2019-04-16T18:49:43.791Z,2.03
2019-04-16T18:54:50.019Z,1.97
2019-04-16T18:59:55.484Z,1.93
2019-04-16T19:05:01.026Z,2.03
2019-04-16T19:10:06.499Z,3.30
2019-04-16T19:15:11.985Z,3.00
2019-04-16T19:20:18.339Z,2.87
2019-04-16T19:25:23.875Z,3.30
2019-04-16T19:30:29.330Z,2.80
2019-04-16T19:35:34.761Z,3.30
2019-04-16T19:40:40.218Z,4.07
2019-04-16T19:45:45.703Z,3.90
2019-04-16T19:50:51.159Z,3.10
2019-04-16T19:55:56.619Z,4.30
2019-04-16T20:01:02.051Z,4.17
2019-04-16T20:06:07.598Z,2.67
2019-04-16T20:11:13.067Z,3.23
2019-04-16T20:16:18.747Z,2.87
2019-04-16T20:21:24.322Z,4.43
2019-04-16T20:26:32.624Z,4.10
2019-04-16T20:31:37.109Z,3.83
2019-04-16T20:36:42.543Z,3.30
2019-04-16T20:41:52.821Z,3.80
2019-04-16T20:46:58.237Z,4.63
2019-04-16T20:52:03.628Z,3.90
2019-04-16T20:57:09.074Z,4.47
2019-04-16T21:02:14.575Z,5.43
2019-04-16T21:07:20.028Z,4.43
2019-04-16T21:12:25.505Z,4.53
2019-04-16T21:17:31.008Z,4.20
2019-04-16T21:22:36.462Z,3.37
2019-04-16T21:28:06.236Z,4.23
2019-04-16T21:33:29.252Z,4.20
2019-04-16T21:38:51.762Z,4.63
2019-04-16T21:43:57.202Z,3.40
2019-04-16T21:49:02.629Z,3.00
2019-04-16T21:54:08.108Z,3.07
2019-04-16T21:59:13.585Z,2.53
2019-04-16T22:04:19.120Z,3.80
2019-04-16T22:09:24.633Z,2.60
2019-04-16T22:14:30.121Z,4.13
2019-04-16T22:19:35.554Z,2.83
2019-04-16T22:24:41.085Z,3.90
2019-04-16T22:29:47.521Z,3.83
2019-04-16T22:34:53.644Z,4.77
2019-04-16T22:40:22.795Z,5.23
2019-04-16T22:45:45.334Z,6.10
2019-04-16T22:50:50.848Z,5.00
2019-04-16T22:55:57.633Z,4.93
2019-04-16T23:01:07.839Z,4.40
2019-04-16T23:06:13.289Z,4.10
2019-04-16T23:11:23.246Z,5.17
2019-04-16T23:16:26.072Z,5.03
2019-04-16T23:21:31.497Z,4.53
2019-04-16T23:26:36.971Z,4.00
2019-04-16T23:31:42.396Z,5.43
2019-04-16T23:36:48.637Z,7.97
2019-04-16T23:41:54.921Z,7.70
2019-04-16T23:47:17.795Z,5.23
2019-04-16T23:52:27.152Z,5.77
2019-04-16T23:57:56.771Z,4.73
